createdAt,value
2022-11-05T00:00:29.708Z,100462.09
2022-11-05T00:03:15.750Z,100456.84
2022-11-05T00:06:03.599Z,100466.94
2022-11-05T00:08:49.358Z,100461.78
2022-11-05T00:11:18.325Z,100458.28
2022-11-05T00:14:04.305Z,100463.44
2022-11-05T00:16:46.536Z,100475.50
2022-11-05T00:19:15.002Z,100471.28
2022-11-05T00:22:00.570Z,100474.63
2022-11-05T00:24:46.338Z,100475.91
2022-11-05T00:27:13.244Z,100475.16
2022-11-05T00:29:40.145Z,100475.22
2022-11-05T00:32:07.068Z,100481.38
2022-11-05T00:34:33.940Z,100481.31
2022-11-05T00:37:00.810Z,100480.41
2022-11-05T00:39:27.667Z,100485.19
2022-11-05T00:42:13.137Z,100501.81
2022-11-05T00:44:59.077Z,100482.25
2022-11-05T00:47:44.704Z,100483.69
2022-11-05T00:50:12.128Z,100495.84
2022-11-05T00:52:58.145Z,100499.25
2022-11-05T00:55:35.431Z,100501.91
2022-11-05T00:58:05.423Z,100504.47
2022-11-05T01:00:34.345Z,100499.31
2022-11-05T01:03:04.168Z,100509.56
2022-11-05T01:05:33.163Z,100510.28
2022-11-05T01:08:01.072Z,100515.59
2022-11-05T01:10:28.374Z,100515.66
2022-11-05T01:12:55.309Z,100518.03
2022-11-05T01:15:22.403Z,100513.59
2022-11-05T01:17:51.498Z,100520.31
2022-11-05T01:20:18.407Z,100514.94
2022-11-05T01:22:45.408Z,100522.09
2022-11-05T01:25:12.276Z,100523.94
2022-11-05T01:27:39.757Z,100519.69
2022-11-05T01:30:08.105Z,100524.91
2022-11-05T01:32:36.854Z,100531.84
2022-11-05T01:35:06.564Z,100530.22
2022-11-05T01:37:35.135Z,100526.06
2022-11-05T01:40:02.152Z,100528.72
2022-11-05T01:42:33.702Z,100534.72
2022-11-05T01:45:12.530Z,100531.47
2022-11-05T01:48:11.286Z,100528.09
2022-11-05T01:51:00.922Z,100533.19
2022-11-05T01:53:38.935Z,100535.63
2022-11-05T01:56:11.536Z,100542.47
2022-11-05T01:58:44.712Z,100547.63
2022-11-05T02:01:12.472Z,100550.06
2022-11-05T02:03:40.064Z,100551.75
2022-11-05T02:06:09.535Z,100544.44
2022-11-05T02:08:56.233Z,100561.91
2022-11-05T02:11:23.280Z,100555.91
2022-11-05T02:13:50.618Z,100554.16
2022-11-05T02:16:37.813Z,100543.91
2022-11-05T02:19:38.641Z,100548.66
2022-11-05T02:22:30.385Z,100553.28
2022-11-05T02:25:18.384Z,100553.81
2022-11-05T02:28:06.744Z,100554.97
2022-11-05T02:30:48.350Z,100553.53
2022-11-05T02:33:23.971Z,100562.88
2022-11-05T02:36:09.179Z,100564.63
2022-11-05T02:38:41.925Z,100565.25
2022-11-05T02:41:34.841Z,100564.16
2022-11-05T02:44:14.359Z,100567.53
2022-11-05T02:47:07.262Z,100558.78
2022-11-05T02:49:53.254Z,100572.63
2022-11-05T02:52:29.334Z,100573.59
2022-11-05T02:55:08.884Z,100570.25
2022-11-05T02:57:36.917Z,100574.34
2022-11-05T03:00:35.984Z,100580.59
2022-11-05T03:03:05.806Z,100587.09
2022-11-05T03:05:52.016Z,100583.63
2022-11-05T03:09:00.504Z,100583.31
2022-11-05T03:11:33.261Z,100577.69
2022-11-05T03:14:08.671Z,100586.34
2022-11-05T03:16:47.858Z,100581.31
2022-11-05T03:19:25.557Z,100597.09
2022-11-05T03:22:08.465Z,100588.31
2022-11-05T03:24:42.236Z,100597.91
2022-11-05T03:27:13.635Z,100601.81
2022-11-05T03:29:47.496Z,100598.34
2022-11-05T03:32:17.766Z,100600.72
2022-11-05T03:34:52.390Z,100602.28
2022-11-05T03:37:23.046Z,100605.72
2022-11-05T03:39:55.272Z,100611.72
2022-11-05T03:42:27.258Z,100617.72
2022-11-05T03:44:58.412Z,100619.59
2022-11-05T03:47:37.247Z,100621.13
2022-11-05T03:50:22.369Z,100619.38
2022-11-05T03:52:53.859Z,100620.16
2022-11-05T03:55:31.307Z,100628.31
2022-11-05T03:57:59.621Z,100633.47
2022-11-05T04:00:26.780Z,100630.97
2022-11-05T04:02:53.735Z,100636.13
2022-11-05T04:05:20.824Z,100634.50
2022-11-05T04:08:11.384Z,100643.00
2022-11-05T04:10:59.818Z,100647.41
2022-11-05T04:13:27.845Z,100640.47
2022-11-05T04:16:14.852Z,100645.78
2022-11-05T04:18:43.009Z,100646.59
2022-11-05T04:21:29.244Z,100642.31
2022-11-05T04:24:08.819Z,100637.81
2022-11-05T04:26:41.266Z,100642.91
2022-11-05T04:29:27.383Z,100642.69
2022-11-05T04:31:55.144Z,100640.13
2022-11-05T04:34:22.600Z,100646.03
2022-11-05T04:36:51.149Z,100642.50
2022-11-05T04:39:18.918Z,100647.56
2022-11-05T04:41:49.550Z,100640.88
2022-11-05T04:44:17.057Z,100652.75
2022-11-05T04:46:44.060Z,100650.22
2022-11-05T04:49:10.962Z,100647.88
2022-11-05T04:51:37.825Z,100654.59
2022-11-05T04:54:04.911Z,100653.03
2022-11-05T04:56:31.962Z,100654.59
2022-11-05T04:58:58.808Z,100656.38
2022-11-05T05:01:26.006Z,100657.25
2022-11-05T05:03:54.458Z,100663.06
2022-11-05T05:06:22.680Z,100666.56
2022-11-05T05:08:51.299Z,100670.03
2022-11-05T05:11:20.551Z,100662.59
2022-11-05T05:13:48.366Z,100664.13
2022-11-05T05:16:23.954Z,100668.16
2022-11-05T05:18:51.537Z,100674.97
2022-11-05T05:21:38.621Z,100674.84
2022-11-05T05:24:08.768Z,100678.56
2022-11-05T05:26:41.658Z,100676.06
2022-11-05T05:29:09.885Z,100686.09
2022-11-05T05:31:37.916Z,100680.94
2022-11-05T05:34:05.414Z,100691.19
2022-11-05T05:36:32.777Z,100699.00
2022-11-05T05:38:59.793Z,100695.44
2022-11-05T05:41:26.729Z,100701.31
2022-11-05T05:43:53.707Z,100703.81
2022-11-05T05:46:20.576Z,100698.59
2022-11-05T05:48:51.860Z,100708.59
2022-11-05T05:51:19.690Z,100710.97
2022-11-05T05:53:46.825Z,100721.22
2022-11-05T05:56:15.274Z,100716.78
2022-11-05T05:58:42.359Z,100728.63
2022-11-05T06:01:18.304Z,100721.94
2022-11-05T06:03:45.778Z,100721.16
2022-11-05T06:06:13.668Z,100719.44
2022-11-05T06:08:41.950Z,100717.66
2022-11-05T06:11:08.956Z,100719.13
2022-11-05T06:13:37.163Z,100720.94
2022-11-05T06:16:06.873Z,100721.66
2022-11-05T06:18:35.002Z,100728.47
2022-11-05T06:21:03.016Z,100725.81
2022-11-05T06:23:34.143Z,100724.31
2022-11-05T06:26:02.529Z,100729.47
2022-11-05T06:28:29.738Z,100726.88
2022-11-05T06:30:57.802Z,100727.09
2022-11-05T06:33:25.300Z,100725.28
2022-11-05T06:35:53.559Z,100724.06
2022-11-05T06:38:20.664Z,100731.53
2022-11-05T06:40:47.533Z,100731.53
2022-11-05T06:43:14.887Z,100737.41
2022-11-05T06:45:42.076Z,100737.47
2022-11-05T06:48:08.971Z,100734.75
2022-11-05T06:50:35.885Z,100737.94
2022-11-05T06:53:04.482Z,100736.09
2022-11-05T06:55:32.063Z,100749.63
2022-11-05T06:57:59.165Z,100752.84
2022-11-05T07:00:26.301Z,100760.59
2022-11-05T07:02:53.359Z,100753.81
2022-11-05T07:05:20.456Z,100759.69
2022-11-05T07:07:47.439Z,100761.22
2022-11-05T07:10:17.684Z,100764.56
2022-11-05T07:12:44.944Z,100761.81
2022-11-05T07:15:13.352Z,100770.19
2022-11-05T07:17:41.034Z,100773.63
2022-11-05T07:20:09.202Z,100769.28
2022-11-05T07:22:36.477Z,100771.63
2022-11-05T07:25:04.237Z,100782.50
2022-11-05T07:27:31.384Z,100780.00
2022-11-05T07:29:58.316Z,100781.47
2022-11-05T07:32:25.234Z,100786.56
2022-11-05T07:34:52.234Z,100795.16
2022-11-05T07:37:19.120Z,100792.03
2022-11-05T07:39:46.002Z,100797.34
2022-11-05T07:42:14.021Z,100795.28
2022-11-05T07:44:41.447Z,100789.22
2022-11-05T07:47:08.389Z,100804.28
2022-11-05T07:49:35.442Z,100804.22
2022-11-05T07:52:02.353Z,100809.16
2022-11-05T07:54:29.310Z,100802.31
2022-11-05T07:56:56.199Z,100802.59
2022-11-05T07:59:23.336Z,100801.94
2022-11-05T08:01:50.427Z,100809.47
2022-11-05T08:04:17.546Z,100814.41
2022-11-05T08:06:44.390Z,100810.97
2022-11-05T08:09:11.352Z,100806.72
2022-11-05T08:11:38.348Z,100813.56
2022-11-05T08:14:05.320Z,100811.41
2022-11-05T08:16:32.400Z,100811.13
2022-11-05T08:18:59.334Z,100804.00
2022-11-05T08:21:26.245Z,100810.66
2022-11-05T08:23:53.185Z,100804.66
2022-11-05T08:26:20.645Z,100819.09
2022-11-05T08:28:47.554Z,100811.41
2022-11-05T08:31:16.045Z,100820.09
2022-11-05T08:33:43.027Z,100816.94
2022-11-05T08:36:09.927Z,100821.94
2022-11-05T08:38:36.845Z,100818.34
2022-11-05T08:41:04.116Z,100822.69
2022-11-05T08:43:31.110Z,100822.84
2022-11-05T08:46:00.486Z,100829.84
2022-11-05T08:48:28.096Z,100828.69
2022-11-05T08:50:54.977Z,100835.94
2022-11-05T08:53:22.001Z,100826.88
2022-11-05T08:55:51.133Z,100827.56
2022-11-05T08:58:19.758Z,100827.34
2022-11-05T09:00:49.447Z,100822.41
2022-11-05T09:03:17.083Z,100817.22
2022-11-05T09:05:44.295Z,100816.59
2022-11-05T09:08:13.857Z,100810.06
2022-11-05T09:10:42.002Z,100818.34
2022-11-05T09:13:14.737Z,100826.19
2022-11-05T09:15:45.242Z,100823.31
2022-11-05T09:18:14.136Z,100820.72
2022-11-05T09:20:41.943Z,100820.63
2022-11-05T09:23:10.721Z,100823.59
2022-11-05T09:25:38.002Z,100817.06
2022-11-05T09:28:21.606Z,100826.25
2022-11-05T09:30:50.818Z,100824.19
2022-11-05T09:33:19.867Z,100826.78
2022-11-05T09:35:46.980Z,100826.50
2022-11-05T09:38:14.498Z,100831.66
2022-11-05T09:40:56.677Z,100834.09
2022-11-05T09:43:46.603Z,100833.78
2022-11-05T09:46:25.692Z,100836.22
2022-11-05T09:49:03.346Z,100833.50
2022-11-05T09:51:31.826Z,100827.41
2022-11-05T09:54:02.260Z,100832.53
2022-11-05T09:56:37.341Z,100844.53
2022-11-05T09:59:21.613Z,100845.22
2022-11-05T10:01:49.869Z,100845.47
2022-11-05T10:04:21.922Z,100862.69
2022-11-05T10:06:57.591Z,100857.69
2022-11-05T10:09:33.156Z,100850.06
2022-11-05T10:12:07.691Z,100854.41
2022-11-05T10:14:41.181Z,100859.06
2022-11-05T10:17:22.378Z,100859.81
2022-11-05T10:20:00.012Z,100855.16
2022-11-05T10:22:26.912Z,100868.75
2022-11-05T10:24:56.696Z,100865.00
2022-11-05T10:27:28.289Z,100868.97
2022-11-05T10:29:55.709Z,100866.31
2022-11-05T10:32:34.067Z,100867.88
2022-11-05T10:35:04.055Z,100868.97
2022-11-05T10:37:33.485Z,100858.31
2022-11-05T10:40:02.074Z,100867.59
2022-11-05T10:42:45.354Z,100865.72
2022-11-05T10:45:24.460Z,100863.03
2022-11-05T10:48:10.241Z,100859.38
2022-11-05T10:50:37.226Z,100858.69
2022-11-05T10:53:15.390Z,100862.25
2022-11-05T10:55:46.368Z,100860.63
2022-11-05T10:58:16.072Z,100865.88
2022-11-05T11:00:52.209Z,100872.69
2022-11-05T11:03:48.924Z,100871.88
2022-11-05T11:06:28.510Z,100872.00
2022-11-05T11:09:01.688Z,100877.34
2022-11-05T11:11:36.063Z,100877.25
2022-11-05T11:14:04.544Z,100875.59
2022-11-05T11:16:51.220Z,100877.19
2022-11-05T11:19:21.181Z,100877.50
2022-11-05T11:22:08.073Z,100881.59
2022-11-05T11:24:39.325Z,100876.09
2022-11-05T11:27:11.392Z,100885.78
2022-11-05T11:29:46.445Z,100890.88
2022-11-05T11:32:18.872Z,100895.22
2022-11-05T11:34:50.070Z,100895.81
2022-11-05T11:37:24.111Z,100894.69
2022-11-05T11:39:56.149Z,100897.06
2022-11-05T11:42:27.514Z,100898.66
2022-11-05T11:44:56.466Z,100894.41
2022-11-05T11:47:23.435Z,100897.75
2022-11-05T11:49:55.992Z,100898.56
2022-11-05T11:52:32.316Z,100897.97
2022-11-05T11:55:11.596Z,100896.06
2022-11-05T11:57:46.834Z,100891.47
2022-11-05T12:00:15.323Z,100899.31
2022-11-05T12:03:04.203Z,100896.97
2022-11-05T12:05:34.128Z,100898.25
2022-11-05T12:08:14.879Z,100901.19
2022-11-05T12:10:55.182Z,100904.91
2022-11-05T12:13:44.332Z,100904.69
2022-11-05T12:16:24.339Z,100910.72
2022-11-05T12:18:54.169Z,100909.72
2022-11-05T12:21:51.890Z,100901.03
2022-11-05T12:24:40.620Z,100903.75
2022-11-05T12:27:44.506Z,100909.44
2022-11-05T12:30:18.588Z,100903.31
2022-11-05T12:33:12.873Z,100898.81
2022-11-05T12:36:26.595Z,100905.81
2022-11-05T12:39:04.448Z,100908.34
2022-11-05T12:42:06.416Z,100914.19
2022-11-05T12:44:44.610Z,100909.84
2022-11-05T12:47:36.346Z,100909.84
2022-11-05T12:50:15.402Z,100909.22
2022-11-05T12:52:45.306Z,100907.94
2022-11-05T12:55:15.214Z,100917.41
2022-11-05T12:57:45.707Z,100911.41
2022-11-05T13:00:18.806Z,100913.88
2022-11-05T13:02:56.495Z,100920.16
2022-11-05T13:05:35.534Z,100916.03
2022-11-05T13:08:08.684Z,100909.97
2022-11-05T13:10:42.864Z,100929.88
2022-11-05T13:13:18.869Z,100920.28
2022-11-05T13:15:57.162Z,100920.22
2022-11-05T13:18:30.923Z,100918.56
2022-11-05T13:21:02.234Z,100924.22
2022-11-05T13:23:32.093Z,100929.88
2022-11-05T13:26:20.814Z,100936.72
2022-11-05T13:29:07.103Z,100942.19
2022-11-05T13:31:41.445Z,100937.56
2022-11-05T13:34:13.194Z,100938.25
2022-11-05T13:37:13.576Z,100945.03
2022-11-05T13:39:45.778Z,100943.28
2022-11-05T13:42:34.678Z,100956.06
2022-11-05T13:45:23.229Z,100955.16
2022-11-05T13:48:01.935Z,100962.44
2022-11-05T13:50:34.563Z,100964.97
2022-11-05T13:53:19.135Z,100970.13
2022-11-05T13:56:07.361Z,100966.06
2022-11-05T13:58:52.461Z,100968.44
2022-11-05T14:01:40.737Z,100974.44
2022-11-05T14:04:27.188Z,100969.28
2022-11-05T14:07:04.862Z,100970.06
2022-11-05T14:09:35.064Z,100978.50
2022-11-05T14:12:02.656Z,100969.00
2022-11-05T14:14:34.500Z,100974.50
2022-11-05T14:17:07.282Z,100977.22
2022-11-05T14:19:48.878Z,100979.88
2022-11-05T14:22:31.105Z,100988.63
2022-11-05T14:25:02.727Z,100986.19
2022-11-05T14:27:43.700Z,100987.16
2022-11-05T14:30:41.049Z,100988.13
2022-11-05T14:33:28.619Z,100983.22
2022-11-05T14:36:29.369Z,100985.88
2022-11-05T14:39:13.687Z,100981.81
2022-11-05T14:41:52.607Z,100990.84
2022-11-05T14:44:20.046Z,100990.78
2022-11-05T14:46:50.164Z,100996.66
2022-11-05T14:49:42.563Z,100991.34
2022-11-05T14:52:11.214Z,100991.16
2022-11-05T14:54:49.949Z,100997.97
2022-11-05T14:57:42.386Z,101000.66
2022-11-05T15:00:40.545Z,100995.50
2022-11-05T15:03:46.331Z,100999.88
2022-11-05T15:06:34.876Z,100994.06
2022-11-05T15:09:16.237Z,100993.88
2022-11-05T15:11:57.149Z,100988.06
2022-11-05T15:14:45.884Z,100994.00
2022-11-05T15:17:21.767Z,100999.25
2022-11-05T15:19:50.142Z,101001.56
2022-11-05T15:22:31.074Z,101011.06
2022-11-05T15:24:58.840Z,101003.25
2022-11-05T15:27:48.526Z,101011.91
2022-11-05T15:30:22.240Z,101011.91
2022-11-05T15:32:49.337Z,101009.44
2022-11-05T15:35:19.584Z,101013.06
2022-11-05T15:37:52.543Z,101008.09
2022-11-05T15:40:28.885Z,101020.81
2022-11-05T15:43:25.089Z,101025.84
2022-11-05T15:46:15.589Z,101016.50
2022-11-05T15:48:50.100Z,101019.78
2022-11-05T15:51:17.853Z,101019.72
2022-11-05T15:54:02.222Z,101028.22
2022-11-05T15:56:54.285Z,101024.06
2022-11-05T15:59:24.446Z,101024.00
2022-11-05T16:01:54.889Z,101023.13
2022-11-05T16:04:31.891Z,101022.38
2022-11-05T16:07:06.688Z,101024.81
2022-11-05T16:09:38.257Z,101023.19
2022-11-05T16:12:18.487Z,101024.19
2022-11-05T16:15:03.982Z,101022.44
2022-11-05T16:17:45.656Z,101016.50
2022-11-05T16:20:37.142Z,101018.63
2022-11-05T16:23:22.813Z,101021.88
2022-11-05T16:25:50.709Z,101023.72
2022-11-05T16:28:26.558Z,101022.88
2022-11-05T16:30:59.342Z,101017.78
2022-11-05T16:33:33.329Z,101025.66
2022-11-05T16:36:00.394Z,101031.47
2022-11-05T16:38:27.956Z,101029.75
2022-11-05T16:40:55.170Z,101025.47
2022-11-05T16:43:24.647Z,101031.53
2022-11-05T16:45:57.492Z,101024.56
2022-11-05T16:48:25.316Z,101033.34
2022-11-05T16:50:53.829Z,101023.16
2022-11-05T16:53:20.835Z,101031.69
2022-11-05T16:55:48.107Z,101031.53
2022-11-05T16:58:24.026Z,101034.91
2022-11-05T17:00:55.962Z,101029.75
2022-11-05T17:03:22.912Z,101042.03
2022-11-05T17:05:49.822Z,101035.56
2022-11-05T17:08:16.799Z,101045.69
2022-11-05T17:10:43.951Z,101031.97
2022-11-05T17:13:16.269Z,101043.50
2022-11-05T17:15:45.142Z,101043.00
2022-11-05T17:18:17.931Z,101040.72
2022-11-05T17:20:51.134Z,101043.19
2022-11-05T17:23:20.924Z,101049.19
2022-11-05T17:25:50.926Z,101043.31
2022-11-05T17:28:19.018Z,101040.69
2022-11-05T17:30:52.225Z,101031.97
2022-11-05T17:33:21.560Z,101035.50
2022-11-05T17:35:48.978Z,101037.72
2022-11-05T17:38:16.178Z,101036.53
2022-11-05T17:40:43.270Z,101043.06
2022-11-05T17:43:11.235Z,101047.91
2022-11-05T17:45:47.046Z,101042.75
2022-11-05T17:48:15.320Z,101039.53
2022-11-05T17:50:44.504Z,101041.72
2022-11-05T17:53:12.620Z,101043.28
2022-11-05T17:55:44.486Z,101048.56
2022-11-05T17:58:12.160Z,101052.66
2022-11-05T18:00:40.517Z,101050.38
2022-11-05T18:03:07.390Z,101055.97
2022-11-05T18:05:34.862Z,101058.13
2022-11-05T18:08:01.957Z,101061.66
2022-11-05T18:10:29.408Z,101060.41
2022-11-05T18:12:56.785Z,101060.53
2022-11-05T18:15:23.693Z,101069.16
2022-11-05T18:17:50.730Z,101068.28
2022-11-05T18:20:19.399Z,101055.00
2022-11-05T18:22:49.576Z,101050.63
2022-11-05T18:25:17.875Z,101051.97
2022-11-05T18:27:44.960Z,101047.56
2022-11-05T18:30:14.182Z,101056.66
2022-11-05T18:32:42.201Z,101064.22
2022-11-05T18:35:09.737Z,101062.66
2022-11-05T18:37:39.390Z,101061.00
2022-11-05T18:40:07.199Z,101067.13
2022-11-05T18:42:34.142Z,101062.53
2022-11-05T18:45:01.154Z,101045.75
2022-11-05T18:47:30.185Z,101058.13
2022-11-05T18:49:57.073Z,101062.13
2022-11-05T18:52:26.021Z,101062.72
2022-11-05T18:54:52.940Z,101057.81
2022-11-05T18:57:20.903Z,101061.47
2022-11-05T18:59:47.990Z,101058.81
2022-11-05T19:02:15.529Z,101058.06
2022-11-05T19:05:00.705Z,101061.34
2022-11-05T19:07:32.101Z,101063.41
2022-11-05T19:09:58.983Z,101068.44
2022-11-05T19:12:25.888Z,101067.00
2022-11-05T19:14:55.600Z,101077.91
2022-11-05T19:17:24.953Z,101069.69
2022-11-05T19:19:51.988Z,101084.16
2022-11-05T19:22:18.947Z,101081.19
2022-11-05T19:24:45.808Z,101087.81
2022-11-05T19:27:12.771Z,101089.56
2022-11-05T19:29:39.644Z,101094.38
2022-11-05T19:32:06.544Z,101095.00
2022-11-05T19:34:33.447Z,101096.94
2022-11-05T19:37:00.468Z,101091.38
2022-11-05T19:39:27.493Z,101097.19
2022-11-05T19:41:58.904Z,101097.06
2022-11-05T19:44:30.009Z,101099.44
2022-11-05T19:46:56.887Z,101100.84
2022-11-05T19:49:23.945Z,101100.25
2022-11-05T19:51:51.164Z,101103.97
2022-11-05T19:54:18.092Z,101107.88
2022-11-05T19:56:45.875Z,101105.06
2022-11-05T19:59:13.231Z,101112.75
2022-11-05T20:01:40.222Z,101099.66
2022-11-05T20:04:07.360Z,101109.44
2022-11-05T20:06:38.726Z,101104.09
2022-11-05T20:09:24.740Z,101103.91
2022-11-05T20:11:56.504Z,101108.94
2022-11-05T20:14:26.317Z,101121.72
2022-11-05T20:16:54.031Z,101119.97
2022-11-05T20:19:22.373Z,101113.09
2022-11-05T20:21:49.920Z,101114.97
2022-11-05T20:24:24.160Z,101108.28
2022-11-05T20:26:53.539Z,101112.44
2022-11-05T20:29:20.534Z,101111.47
2022-11-05T20:31:47.473Z,101113.09
2022-11-05T20:34:14.735Z,101114.56
2022-11-05T20:36:41.640Z,101111.91
2022-11-05T20:39:10.127Z,101111.16
2022-11-05T20:41:37.147Z,101109.63
2022-11-05T20:44:04.678Z,101114.56
2022-11-05T20:46:32.899Z,101110.59
2022-11-05T20:48:59.899Z,101118.97
2022-11-05T20:51:27.055Z,101118.03
2022-11-05T20:53:56.284Z,101118.38
2022-11-05T20:56:26.270Z,101121.91
2022-11-05T20:58:53.866Z,101112.31
2022-11-05T21:01:21.016Z,101111.91
2022-11-05T21:03:48.464Z,101106.75
2022-11-05T21:06:16.477Z,101103.78
2022-11-05T21:08:44.155Z,101113.22
2022-11-05T21:11:11.034Z,101113.34
2022-11-05T21:13:38.432Z,101110.88
2022-11-05T21:16:07.304Z,101105.84
2022-11-05T21:18:39.166Z,101106.47
2022-11-05T21:21:08.317Z,101105.72
2022-11-05T21:23:35.482Z,101105.06
2022-11-05T21:26:06.793Z,101106.44
2022-11-05T21:28:34.244Z,101109.63
2022-11-05T21:31:02.694Z,101109.63
2022-11-05T21:33:30.202Z,101103.66
2022-11-05T21:35:57.445Z,101119.09
2022-11-05T21:38:24.928Z,101118.38
2022-11-05T21:40:51.911Z,101120.13
2022-11-05T21:43:18.816Z,101124.38
2022-11-05T21:45:45.803Z,101133.81
2022-11-05T21:48:15.208Z,101132.28
2022-11-05T21:51:00.902Z,101120.66
2022-11-05T21:53:46.471Z,101141.66
2022-11-05T21:56:43.813Z,101136.31
2022-11-05T21:59:34.946Z,101141.44
2022-11-05T22:02:02.721Z,101136.59
2022-11-05T22:04:35.793Z,101138.91
2022-11-05T22:07:03.804Z,101135.38
2022-11-05T22:09:31.044Z,101137.09
2022-11-05T22:11:58.101Z,101129.28
2022-11-05T22:14:25.282Z,101127.50
2022-11-05T22:16:52.105Z,101139.63
2022-11-05T22:19:19.876Z,101131.81
2022-11-05T22:21:46.805Z,101138.78
2022-11-05T22:24:14.523Z,101133.56
2022-11-05T22:26:42.826Z,101140.19
2022-11-05T22:29:09.782Z,101115.31
2022-11-05T22:31:36.978Z,101140.09
2022-11-05T22:34:06.059Z,101141.53
2022-11-05T22:36:34.546Z,101154.09
2022-11-05T22:39:02.314Z,101149.72
2022-11-05T22:41:29.398Z,101153.31
2022-11-05T22:43:56.476Z,101154.22
2022-11-05T22:46:25.092Z,101164.88
2022-11-05T22:48:52.899Z,101162.69
2022-11-05T22:51:27.788Z,101164.38
2022-11-05T22:53:55.249Z,101167.91
2022-11-05T22:56:24.533Z,101165.72
2022-11-05T22:58:52.262Z,101168.13
2022-11-05T23:01:20.781Z,101172.38
2022-11-05T23:03:49.385Z,101177.09
2022-11-05T23:06:39.521Z,101173.66
2022-11-05T23:09:40.506Z,101174.88
2022-11-05T23:12:20.260Z,101178.13
2022-11-05T23:14:48.411Z,101173.50
2022-11-05T23:17:34.000Z,101172.56
2022-11-05T23:20:30.551Z,101168.22
2022-11-05T23:23:16.784Z,101173.69
2022-11-05T23:25:44.054Z,101173.75
2022-11-05T23:28:12.383Z,101159.56
2022-11-05T23:31:02.190Z,101173.06
2022-11-05T23:33:34.696Z,101161.19
2022-11-05T23:36:20.997Z,101159.06
2022-11-05T23:38:48.277Z,101158.09
2022-11-05T23:41:33.950Z,101157.69
2022-11-05T23:44:19.695Z,101171.66
2022-11-05T23:47:05.166Z,101157.97
2022-11-05T23:49:32.272Z,101160.31
2022-11-05T23:51:59.204Z,101155.47
2022-11-05T23:54:26.029Z,101156.97
2022-11-05T23:56:52.968Z,101158.06
2022-11-05T23:59:19.838Z,101150.44
